YTYH weather

Tyagarah Airport
New South Wales, Australia

Public forecast

Using degrees Celsius for public forecast. Weather courtesy of forecast.io.

METAR (pilot weather report)

Closest report is Ballina Byron Gateway Airport, 14.4 nm (26.6 km) S. Retrieved 2019/04/20 11:00 UTC (51 minutes ago):

YBNA 201100Z AUTO 11011KT 9999 // SCT025 23/21 Q1023

TAF (pilot weather forecast)

Closest forecast is Gold Coast Airport, 25.9 nm (48.1 km) N. Retrieved 2019/04/20 06:00 UTC (6 hours ago):

TAF YBCG 200504Z 2006/2106 13014KT 9999 -SHRA FEW015 SCT025 BKN040 FM201200 15008KT 9999 -SHRA SCT015 SCT030 FM202300 12014KT 9999 -SHRA SCT020 SCT030 INTER 2006/2018 3000 SHRA BKN012